Time;durP1;ratioP1;P1;durP2;ratioP2;P2;SDS_P1;SDS_P2;PMS_P1;PMS_P2;Temp;Humidity;BMP_temperature;BMP_pressure;BME280_temperature;BME280_humidity;BME280_pressure;Samples;Min_cycle;Max_cycle;Signal;HPM_P1;HPM_P2
2023/09/28 00:03:27;;;;;;;7.75;3.30;;;;;;;;;;6302416;27;20711;-67
2023/09/28 00:06:29;;;;;;;11.20;6.10;;;;;;;;;;6251008;27;20064;-67
2023/09/28 00:09:32;;;;;;;5.82;4.18;;;;;;;;;;6273122;27;20049;-67
2023/09/28 00:12:35;;;;;;;6.97;3.53;;;;;;;;;;6259196;27;20049;-67
2023/09/28 00:15:37;;;;;;;7.97;7.28;;;;;;;;;;6278053;27;20045;-67
2023/09/28 00:18:39;;;;;;;10.35;5.75;;;;;;;;;;6278699;27;20073;-67
2023/09/28 00:21:41;;;;;;;9.27;4.25;;;;;;;;;;6268345;27;20050;-67
2023/09/28 00:24:43;;;;;;;7.90;5.53;;;;;;;;;;6264892;27;20050;-67
2023/09/28 00:27:50;;;;;;;10.32;3.60;;;;;;;;;;6276835;27;20993;-67
2023/09/28 00:30:53;;;;;;;9.02;5.43;;;;;;;;;;6244999;28;20041;-67
2023/09/28 00:33:55;;;;;;;9.10;4.97;;;;;;;;;;6250011;27;20049;-67
2023/09/28 00:36:58;;;;;;;6.40;4.57;;;;;;;;;;6298299;27;20155;-68
2023/09/28 00:43:27;;;;;;;4.88;3.55;;;;;;;;;;6270562;27;20600;-67
2023/09/28 00:46:32;;;;;;;7.32;4.38;;;;;;;;;;6307684;27;20059;-67
2023/09/28 00:49:36;;;;;;;6.68;3.95;;;;;;;;;;6240764;28;20498;-67
2023/09/28 00:52:39;;;;;;;7.13;3.72;;;;;;;;;;6232157;28;20037;-68
2023/09/28 00:55:43;;;;;;;8.52;3.63;;;;;;;;;;6256258;27;20051;-67
2023/09/28 00:58:48;;;;;;;8.35;3.95;;;;;;;;;;6279762;27;20053;-68
2023/09/28 01:01:50;;;;;;;7.03;3.92;;;;;;;;;;6281504;27;20052;-68
2023/09/28 01:04:52;;;;;;;7.88;6.10;;;;;;;;;;6222209;28;20049;-67
2023/09/28 01:07:56;;;;;;;9.30;3.97;;;;;;;;;;6248665;27;20378;-67
2023/09/28 01:10:58;;;;;;;6.53;3.55;;;;;;;;;;6326777;27;20046;-67
2023/09/28 01:14:04;;;;;;;8.68;3.65;;;;;;;;;;6301752;27;21312;-67
2023/09/28 01:17:07;;;;;;;6.57;3.00;;;;;;;;;;6250096;27;20052;-67
2023/09/28 01:20:30;;;;;;;9.25;5.47;;;;;;;;;;6266004;27;20049;-67
2023/09/28 01:23:32;;;;;;;7.18;5.55;;;;;;;;;;6239921;27;20060;-67
2023/09/28 01:26:34;;;;;;;8.45;3.75;;;;;;;;;;6259853;27;20163;-67
2023/09/28 01:29:38;;;;;;;6.53;3.38;;;;;;;;;;6282044;27;20043;-66
2023/09/28 01:32:42;;;;;;;11.00;6.22;;;;;;;;;;6261693;27;20037;-67
2023/09/28 01:35:44;;;;;;;6.00;2.95;;;;;;;;;;6230251;27;20053;-67
2023/09/28 01:38:56;;;;;;;8.82;6.28;;;;;;;;;;6281803;27;20539;-68
2023/09/28 01:42:00;;;;;;;6.35;3.90;;;;;;;;;;6267627;27;20050;-68
2023/09/28 01:45:03;;;;;;;6.82;5.80;;;;;;;;;;6245862;27;20052;-68
2023/09/28 01:48:06;;;;;;;9.20;5.75;;;;;;;;;;6309024;27;20056;-68
2023/09/28 01:51:08;;;;;;;8.90;7.30;;;;;;;;;;6298018;27;20054;-69
2023/09/28 01:54:11;;;;;;;5.38;3.80;;;;;;;;;;6224621;28;20045;-66
2023/09/28 01:57:13;;;;;;;6.85;5.10;;;;;;;;;;6287038;27;20040;-66
2023/09/28 02:00:18;;;;;;;8.55;5.05;;;;;;;;;;6318904;27;20055;-63
2023/09/28 02:03:21;;;;;;;;;;;;;;;;;;6340215;27;20130;-65
2023/09/28 02:06:24;;;;;;;10.85;3.67;;;;;;;;;;6262658;27;19919;-65
2023/09/28 02:09:26;;;;;;;9.38;3.60;;;;;;;;;;6291385;27;20046;-65
2023/09/28 02:12:30;;;;;;;7.72;5.70;;;;;;;;;;6328634;27;20438;-64
2023/09/28 02:15:32;;;;;;;7.68;4.38;;;;;;;;;;6221616;28;20097;-65
2023/09/28 02:18:34;;;;;;;6.70;5.07;;;;;;;;;;6279185;27;20052;-64
2023/09/28 02:21:36;;;;;;;6.40;4.00;;;;;;;;;;6268483;27;20176;-64
2023/09/28 02:24:40;;;;;;;8.20;3.42;;;;;;;;;;6222473;27;20050;-64
2023/09/28 02:27:44;;;;;;;5.88;3.80;;;;;;;;;;6282282;27;20051;-65
2023/09/28 02:30:46;;;;;;;8.48;3.97;;;;;;;;;;6288874;27;20078;-66
2023/09/28 02:33:48;;;;;;;8.27;3.85;;;;;;;;;;6247874;27;20118;-66
2023/09/28 02:36:50;;;;;;;6.30;3.80;;;;;;;;;;6226508;27;20538;-67
2023/09/28 02:39:52;;;;;;;11.68;5.15;;;;;;;;;;6311489;27;20065;-65
2023/09/28 02:42:54;;;;;;;8.98;4.47;;;;;;;;;;6287472;27;20495;-66
2023/09/28 02:45:57;;;;;;;6.50;4.63;;;;;;;;;;6278335;27;20564;-65
2023/09/28 02:48:59;;;;;;;11.52;6.72;;;;;;;;;;6310047;27;20048;-65
2023/09/28 02:52:02;;;;;;;9.38;7.97;;;;;;;;;;6250922;27;20045;-66
2023/09/28 02:55:07;;;;;;;10.77;4.80;;;;;;;;;;6205409;28;20551;-66
2023/09/28 02:58:26;;;;;;;7.50;4.07;;;;;;;;;;6259222;27;20037;-65
2023/09/28 03:01:29;;;;;;;5.70;3.50;;;;;;;;;;6283333;27;20062;-65
2023/09/28 03:04:31;;;;;;;8.93;6.07;;;;;;;;;;6265086;27;20173;-67
2023/09/28 03:07:34;;;;;;;7.80;4.63;;;;;;;;;;6274981;27;20045;-65
2023/09/28 03:10:41;;;;;;;5.72;3.90;;;;;;;;;;6266151;27;20947;-66
2023/09/28 03:14:03;;;;;;;5.50;3.67;;;;;;;;;;6308322;27;20398;-66
2023/09/28 03:17:05;;;;;;;10.57;4.13;;;;;;;;;;6251343;27;20511;-65
2023/09/28 03:20:14;;;;;;;9.05;6.63;;;;;;;;;;6277291;27;20047;-66
2023/09/28 03:23:17;;;;;;;6.70;5.97;;;;;;;;;;6267986;27;20187;-65
2023/09/28 03:26:20;;;;;;;9.57;5.90;;;;;;;;;;6243819;27;20039;-65
2023/09/28 03:29:24;;;;;;;10.38;4.72;;;;;;;;;;6279046;27;20039;-64
2023/09/28 03:32:26;;;;;;;8.15;6.38;;;;;;;;;;6275819;27;20054;-64
2023/09/28 03:35:28;;;;;;;7.03;6.22;;;;;;;;;;6250071;27;20054;-65
2023/09/28 03:38:30;;;;;;;9.02;6.88;;;;;;;;;;6239444;27;20521;-65
2023/09/28 03:41:34;;;;;;;6.80;4.25;;;;;;;;;;6247592;28;20042;-65
2023/09/28 03:44:36;;;;;;;7.53;4.15;;;;;;;;;;6233675;28;20060;-65
2023/09/28 03:47:39;;;;;;;7.00;5.97;;;;;;;;;;6251706;27;20053;-66
2023/09/28 03:50:41;;;;;;;13.23;8.63;;;;;;;;;;6234643;28;20041;-65
2023/09/28 03:53:43;;;;;;;9.25;5.45;;;;;;;;;;6243532;28;20042;-66
2023/09/28 03:56:45;;;;;;;9.40;4.15;;;;;;;;;;6252762;28;20043;-65
2023/09/28 03:59:47;;;;;;;9.90;4.47;;;;;;;;;;6236579;28;20057;-65
2023/09/28 04:02:50;;;;;;;11.63;5.47;;;;;;;;;;6227756;28;20046;-66
2023/09/28 04:05:56;;;;;;;8.65;7.00;;;;;;;;;;6274887;27;20531;-66
2023/09/28 04:08:58;;;;;;;7.97;5.20;;;;;;;;;;6252012;28;20047;-66
2023/09/28 04:12:00;;;;;;;9.93;7.32;;;;;;;;;;6230806;28;20043;-66
2023/09/28 04:15:03;;;;;;;10.20;6.80;;;;;;;;;;6243514;28;20050;-66
2023/09/28 04:18:06;;;;;;;9.70;6.53;;;;;;;;;;6221933;28;20134;-66
2023/09/28 04:21:08;;;;;;;10.63;4.55;;;;;;;;;;6231753;28;20056;-66
2023/09/28 04:24:11;;;;;;;8.65;7.65;;;;;;;;;;6242258;28;20632;-67
2023/09/28 04:27:13;;;;;;;7.65;6.88;;;;;;;;;;6243202;28;20073;-65
2023/09/28 04:30:15;;;;;;;9.40;6.68;;;;;;;;;;6229088;28;20054;-65
2023/09/28 04:33:21;;;;;;;8.25;6.78;;;;;;;;;;6249759;28;20038;-66
2023/09/28 04:36:24;;;;;;;11.90;6.82;;;;;;;;;;6242790;28;20050;-65
2023/09/28 04:39:26;;;;;;;8.63;5.57;;;;;;;;;;6255124;27;20128;-66
2023/09/28 04:42:28;;;;;;;10.73;4.93;;;;;;;;;;6255587;27;20042;-64
2023/09/28 04:45:30;;;;;;;14.60;10.15;;;;;;;;;;6260843;27;20056;-64
2023/09/28 04:48:33;;;;;;;18.98;8.60;;;;;;;;;;6236747;27;20050;-65
2023/09/28 04:51:35;;;;;;;13.90;10.20;;;;;;;;;;6283499;27;20042;-64
2023/09/28 04:54:37;;;;;;;11.23;7.60;;;;;;;;;;6262891;27;20482;-65
2023/09/28 04:57:40;;;;;;;10.75;7.90;;;;;;;;;;6284865;27;20038;-65
2023/09/28 05:00:42;;;;;;;14.70;7.25;;;;;;;;;;6285613;27;20055;-65
2023/09/28 05:03:44;;;;;;;10.32;8.57;;;;;;;;;;6278128;27;20220;-66
2023/09/28 05:06:46;;;;;;;9.05;5.80;;;;;;;;;;6271874;27;20176;-66
2023/09/28 05:09:48;;;;;;;16.63;8.63;;;;;;;;;;6276801;27;20049;-66
2023/09/28 05:12:50;;;;;;;16.02;6.97;;;;;;;;;;6251175;27;20039;-66
2023/09/28 05:15:52;;;;;;;12.18;8.52;;;;;;;;;;6275293;27;20055;-66
2023/09/28 05:18:55;;;;;;;11.55;8.30;;;;;;;;;;6255607;27;20195;-66
2023/09/28 05:21:57;;;;;;;12.10;7.90;;;;;;;;;;6296021;27;20038;-67
2023/09/28 05:24:59;;;;;;;11.07;5.78;;;;;;;;;;6282644;27;20058;-67
2023/09/28 05:28:02;;;;;;;10.05;8.25;;;;;;;;;;6266515;27;20049;-67
2023/09/28 05:31:04;;;;;;;11.02;5.88;;;;;;;;;;6289798;27;20041;-67
2023/09/28 05:34:07;;;;;;;8.38;6.18;;;;;;;;;;6265293;27;20072;-67
2023/09/28 05:37:09;;;;;;;14.45;5.45;;;;;;;;;;6280965;27;20097;-67
2023/09/28 05:40:11;;;;;;;7.78;5.05;;;;;;;;;;6281525;27;20126;-65
2023/09/28 05:43:13;;;;;;;15.45;6.47;;;;;;;;;;6259243;28;20043;-65
2023/09/28 05:46:15;;;;;;;18.05;5.82;;;;;;;;;;6279242;27;20069;-66
2023/09/28 05:49:18;;;;;;;14.15;8.10;;;;;;;;;;6292245;27;20054;-66
2023/09/28 05:52:20;;;;;;;17.67;6.18;;;;;;;;;;6251252;27;20053;-67
2023/09/28 05:55:24;;;;;;;10.98;6.57;;;;;;;;;;6247990;27;20077;-66
2023/09/28 05:58:27;;;;;;;10.93;8.05;;;;;;;;;;6280401;27;20037;-65
2023/09/28 06:01:32;;;;;;;9.25;6.13;;;;;;;;;;6285235;27;20548;-67
2023/09/28 06:04:51;;;;;;;13.32;5.25;;;;;;;;;;6287837;27;20093;-66
2023/09/28 06:07:54;;;;;;;11.27;7.22;;;;;;;;;;6261302;27;20132;-66
2023/09/28 06:10:56;;;;;;;7.80;4.78;;;;;;;;;;6282311;27;20049;-66
2023/09/28 06:14:16;;;;;;;;;;;;;;;;;;6242680;27;20060;-67
2023/09/28 06:17:18;;;;;;;9.68;5.88;;;;;;;;;;6253741;27;19925;-66
2023/09/28 06:20:20;;;;;;;13.35;6.72;;;;;;;;;;6225939;28;20140;-66
2023/09/28 06:23:22;;;;;;;14.88;5.75;;;;;;;;;;6250506;27;20185;-66
2023/09/28 06:26:24;;;;;;;12.55;4.97;;;;;;;;;;6272309;27;20056;-66
2023/09/28 06:29:43;;;;;;;15.55;8.45;;;;;;;;;;6232343;28;21344;-66
2023/09/28 06:32:45;;;;;;;9.73;4.95;;;;;;;;;;6259583;27;20035;-66
2023/09/28 06:35:47;;;;;;;13.20;6.88;;;;;;;;;;6262121;27;20047;-67
2023/09/28 06:38:49;;;;;;;12.48;5.20;;;;;;;;;;6239913;27;20048;-66
2023/09/28 06:42:08;;;;;;;11.55;6.63;;;;;;;;;;6256010;27;20068;-66
2023/09/28 06:45:30;;;;;;;13.20;5.57;;;;;;;;;;6250399;27;20456;-66
2023/09/28 06:48:33;;;;;;;10.43;5.00;;;;;;;;;;6257523;27;20072;-66
2023/09/28 06:51:37;;;;;;;13.52;7.18;;;;;;;;;;6278015;27;20052;-66
2023/09/28 06:54:39;;;;;;;16.23;4.28;;;;;;;;;;6336149;27;20043;-68
2023/09/28 06:57:41;;;;;;;14.77;5.38;;;;;;;;;;6300356;27;20065;-66
2023/09/28 07:01:00;;;;;;;13.65;7.18;;;;;;;;;;6316067;27;20105;-66
2023/09/28 07:04:03;;;;;;;10.20;5.78;;;;;;;;;;6237990;27;20066;-66
2023/09/28 07:07:05;;;;;;;10.73;5.68;;;;;;;;;;6326323;27;20055;-66
2023/09/28 07:10:11;;;;;;;7.82;5.78;;;;;;;;;;6327565;27;20047;-65
2023/09/28 07:13:13;;;;;;;11.23;7.03;;;;;;;;;;6267135;27;20437;-66
2023/09/28 07:16:15;;;;;;;14.65;7.43;;;;;;;;;;6315504;27;20061;-65
2023/09/28 07:19:19;;;;;;;9.80;7.35;;;;;;;;;;6250982;27;20039;-66
2023/09/28 07:22:21;;;;;;;10.10;4.45;;;;;;;;;;6324422;27;20047;-65
2023/09/28 07:25:26;;;;;;;13.35;6.72;;;;;;;;;;6314788;27;20050;-65
2023/09/28 07:28:29;;;;;;;10.65;4.50;;;;;;;;;;6263495;27;20042;-66
2023/09/28 07:31:31;;;;;;;16.45;6.35;;;;;;;;;;6231708;27;20045;-66
2023/09/28 07:34:34;;;;;;;6.93;4.75;;;;;;;;;;6302471;27;20043;-66
2023/09/28 07:37:38;;;;;;;8.98;4.03;;;;;;;;;;6304544;27;20440;-65
2023/09/28 07:40:40;;;;;;;11.23;5.88;;;;;;;;;;6314313;27;20039;-66
2023/09/28 07:43:45;;;;;;;9.52;7.30;;;;;;;;;;6275088;28;20039;-66
2023/09/28 07:46:47;;;;;;;12.35;5.57;;;;;;;;;;6312817;27;20451;-66
2023/09/28 07:49:49;;;;;;;12.40;5.32;;;;;;;;;;6224174;27;20075;-66
2023/09/28 07:52:52;;;;;;;8.57;5.18;;;;;;;;;;6292214;28;20062;-66
2023/09/28 07:55:54;;;;;;;8.05;3.53;;;;;;;;;;6263478;28;20039;-66
2023/09/28 07:58:57;;;;;;;16.42;4.32;;;;;;;;;;6246758;28;20166;-66
2023/09/28 08:02:00;;;;;;;10.35;3.55;;;;;;;;;;6283516;28;20657;-65
2023/09/28 08:05:02;;;;;;;8.15;2.55;;;;;;;;;;6271921;28;20056;-66
2023/09/28 08:08:05;;;;;;;10.70;5.82;;;;;;;;;;6280041;27;20057;-65
2023/09/28 08:11:17;;;;;;;7.65;3.25;;;;;;;;;;6252639;27;20045;-66
2023/09/28 08:14:21;;;;;;;8.75;2.80;;;;;;;;;;6286541;27;20554;-66
2023/09/28 08:17:23;;;;;;;8.32;4.25;;;;;;;;;;6294827;27;21184;-65
2023/09/28 08:20:44;;;;;;;8.85;5.78;;;;;;;;;;6280210;27;20054;-66
2023/09/28 08:24:05;;;;;;;6.47;3.30;;;;;;;;;;6247885;27;20049;-66
2023/09/28 08:27:07;;;;;;;8.00;4.85;;;;;;;;;;6252153;27;20041;-66
2023/09/28 08:30:10;;;;;;;13.00;4.32;;;;;;;;;;6305286;27;20050;-66
2023/09/28 08:33:12;;;;;;;5.80;4.22;;;;;;;;;;6283835;27;20046;-66
2023/09/28 08:36:14;;;;;;;5.45;2.53;;;;;;;;;;6321106;27;20638;-65
2023/09/28 08:39:17;;;;;;;8.00;4.97;;;;;;;;;;6281262;27;20042;-66
2023/09/28 08:42:23;;;;;;;9.35;4.13;;;;;;;;;;6297214;27;20134;-66
2023/09/28 08:45:29;;;;;;;9.27;4.10;;;;;;;;;;6299358;27;20111;-66
2023/09/28 08:48:33;;;;;;;9.63;4.53;;;;;;;;;;6323995;27;20735;-66
2023/09/28 08:51:37;;;;;;;6.75;4.03;;;;;;;;;;6272528;27;20051;-67
2023/09/28 08:54:39;;;;;;;9.45;4.13;;;;;;;;;;6257306;27;20521;-68
2023/09/28 08:57:42;;;;;;;7.82;4.00;;;;;;;;;;6240922;27;20050;-68
2023/09/28 09:00:44;;;;;;;9.32;3.42;;;;;;;;;;6243453;27;20117;-68
2023/09/28 09:03:47;;;;;;;7.97;3.38;;;;;;;;;;6297789;27;20057;-68
2023/09/28 09:06:50;;;;;;;7.32;2.83;;;;;;;;;;6231359;27;20778;-69
2023/09/28 09:09:53;;;;;;;6.45;3.90;;;;;;;;;;6245718;27;20053;-68
2023/09/28 09:12:55;;;;;;;5.07;3.55;;;;;;;;;;6228417;28;20554;-68
2023/09/28 09:15:57;;;;;;;5.05;2.88;;;;;;;;;;6279587;27;20108;-68
2023/09/28 09:19:17;;;;;;;7.18;3.35;;;;;;;;;;6358602;27;20031;-68
2023/09/28 09:22:27;;;;;;;5.85;3.83;;;;;;;;;;6294232;27;20051;-68
2023/09/28 09:25:41;;;;;;;6.95;3.13;;;;;;;;;;6284226;27;20074;-68
2023/09/28 09:28:46;;;;;;;6.47;2.88;;;;;;;;;;6293774;27;20099;-68
2023/09/28 09:31:49;;;;;;;8.13;3.20;;;;;;;;;;6293181;27;20042;-68
2023/09/28 09:35:10;;;;;;;6.85;3.72;;;;;;;;;;6297666;27;20067;-68
2023/09/28 09:38:13;;;;;;;8.00;4.10;;;;;;;;;;6303443;27;20445;-68
2023/09/28 09:41:15;;;;;;;6.80;3.38;;;;;;;;;;6259075;27;20060;-68
2023/09/28 09:44:24;;;;;;;8.30;4.63;;;;;;;;;;6296080;27;20052;-68
2023/09/28 09:47:26;;;;;;;5.63;3.55;;;;;;;;;;6300231;27;20129;-68
2023/09/28 09:50:31;;;;;;;8.85;4.03;;;;;;;;;;6301573;27;20054;-68
2023/09/28 09:53:34;;;;;;;7.70;3.58;;;;;;;;;;6279670;27;20059;-69
2023/09/28 09:56:37;;;;;;;5.40;2.05;;;;;;;;;;6270514;27;20437;-68
2023/09/28 09:59:44;;;;;;;6.85;2.95;;;;;;;;;;6304989;27;20745;-68
2023/09/28 10:02:47;;;;;;;8.05;3.20;;;;;;;;;;6283209;27;20041;-68
2023/09/28 10:05:50;;;;;;;12.52;3.10;;;;;;;;;;6272983;27;20047;-68
2023/09/28 10:09:10;;;;;;;6.75;3.20;;;;;;;;;;6336695;27;20158;-67
2023/09/28 10:12:13;;;;;;;5.13;3.35;;;;;;;;;;6285559;27;20555;-67
2023/09/28 10:15:16;;;;;;;8.88;3.83;;;;;;;;;;6287662;27;20034;-67
2023/09/28 10:18:19;;;;;;;6.65;3.30;;;;;;;;;;6250764;27;20821;-67
2023/09/28 10:21:21;;;;;;;9.25;3.28;;;;;;;;;;6291171;27;20056;-67
2023/09/28 10:24:32;;;;;;;6.32;2.40;;;;;;;;;;6259477;27;20046;-67
2023/09/28 10:27:36;;;;;;;5.80;3.00;;;;;;;;;;6275483;27;20813;-68
2023/09/28 10:30:38;;;;;;;5.20;3.05;;;;;;;;;;6298221;27;20475;-67
2023/09/28 10:34:02;;;;;;;4.63;3.10;;;;;;;;;;6294589;27;20037;-67
2023/09/28 10:37:08;;;;;;;8.27;3.17;;;;;;;;;;6301928;27;20523;-67
2023/09/28 10:40:11;;;;;;;6.00;3.90;;;;;;;;;;6333164;27;20526;-68
2023/09/28 10:43:38;;;;;;;5.88;3.03;;;;;;;;;;6326929;27;20030;-67
2023/09/28 10:46:58;;;;;;;8.50;3.25;;;;;;;;;;6291168;27;20111;-66
2023/09/28 10:50:19;;;;;;;7.35;3.40;;;;;;;;;;6300251;27;20113;-68
2023/09/28 10:53:21;;;;;;;5.22;3.25;;;;;;;;;;6243926;27;20054;-68
2023/09/28 10:56:24;;;;;;;6.88;3.35;;;;;;;;;;6264026;27;20104;-68
2023/09/28 10:59:31;;;;;;;7.05;3.47;;;;;;;;;;6335451;27;20544;-68
2023/09/28 11:02:37;;;;;;;5.88;3.55;;;;;;;;;;6303370;27;20119;-68
2023/09/28 11:05:58;;;;;;;9.00;3.80;;;;;;;;;;6276256;27;20073;-68
2023/09/28 11:09:01;;;;;;;7.03;4.00;;;;;;;;;;6312283;27;20070;-67
2023/09/28 11:12:08;;;;;;;6.20;3.45;;;;;;;;;;6265475;27;20045;-68
2023/09/28 11:15:14;;;;;;;9.13;3.13;;;;;;;;;;6326100;27;20041;-68
2023/09/28 11:18:18;;;;;;;11.77;3.78;;;;;;;;;;6312739;27;20141;-68
2023/09/28 11:21:20;;;;;;;9.35;3.67;;;;;;;;;;6324885;27;20079;-67
2023/09/28 11:24:22;;;;;;;7.15;3.42;;;;;;;;;;6354855;27;20444;-67
2023/09/28 11:27:24;;;;;;;10.18;3.50;;;;;;;;;;6291339;27;20039;-67
2023/09/28 11:30:27;;;;;;;8.70;3.30;;;;;;;;;;6263251;27;20054;-68
2023/09/28 11:33:29;;;;;;;6.57;3.78;;;;;;;;;;6318116;27;20043;-67
2023/09/28 11:36:32;;;;;;;5.95;3.88;;;;;;;;;;6324608;27;20080;-67
2023/09/28 11:39:34;;;;;;;8.60;2.90;;;;;;;;;;6361516;27;20122;-68
2023/09/28 11:42:42;;;;;;;6.85;3.08;;;;;;;;;;6261515;27;20058;-68
2023/09/28 11:45:47;;;;;;;9.25;3.95;;;;;;;;;;6307056;27;20071;-67
2023/09/28 11:49:02;;;;;;;;;;;;;;;;;;6266645;27;20050;-68
2023/09/28 11:52:04;;;;;;;;;;;;;;;;;;6254918;28;19936;-67
2023/09/28 11:55:06;;;;;;;7.00;2.40;;;;;;;;;;6300567;27;20298;-68
2023/09/28 11:58:10;;;;;;;6.03;3.75;;;;;;;;;;6297900;28;20137;-67
2023/09/28 12:01:12;;;;;;;9.27;5.15;;;;;;;;;;6295095;28;20046;-68
2023/09/28 12:04:31;;;;;;;7.18;3.55;;;;;;;;;;6320078;28;20054;-67
2023/09/28 12:07:33;;;;;;;10.50;4.15;;;;;;;;;;6308574;27;20541;-67
2023/09/28 12:10:37;;;;;;;6.35;3.47;;;;;;;;;;6324723;27;20047;-68
2023/09/28 12:13:39;;;;;;;8.73;3.67;;;;;;;;;;6307074;28;20044;-67
2023/09/28 12:16:42;;;;;;;8.85;4.88;;;;;;;;;;6283921;27;20100;-67
2023/09/28 12:19:48;;;;;;;6.78;3.47;;;;;;;;;;6352699;27;20078;-67
2023/09/28 12:22:51;;;;;;;5.15;2.72;;;;;;;;;;6272570;28;20554;-67
2023/09/28 12:26:11;;;;;;;9.60;3.40;;;;;;;;;;6335992;27;20104;-67
2023/09/28 12:29:13;;;;;;;13.40;3.67;;;;;;;;;;6301344;28;20070;-68
2023/09/28 12:32:15;;;;;;;10.50;3.78;;;;;;;;;;6231650;28;20226;-67
2023/09/28 12:35:17;;;;;;;11.18;4.60;;;;;;;;;;6357134;27;20138;-68
2023/09/28 12:38:37;;;;;;;8.40;4.05;;;;;;;;;;6268236;28;20836;-67
2023/09/28 12:41:40;;;;;;;7.65;3.95;;;;;;;;;;6247176;28;20057;-67
2023/09/28 12:44:42;;;;;;;7.60;3.97;;;;;;;;;;6258028;28;20041;-68
2023/09/28 12:47:46;;;;;;;9.57;4.80;;;;;;;;;;6261007;28;20081;-67
2023/09/28 12:50:49;;;;;;;7.30;3.85;;;;;;;;;;6273937;28;20048;-67
2023/09/28 12:53:51;;;;;;;6.75;3.85;;;;;;;;;;6279315;28;20037;-67
2023/09/28 12:56:54;;;;;;;9.23;4.50;;;;;;;;;;6238111;28;20647;-68
2023/09/28 12:59:56;;;;;;;8.40;2.47;;;;;;;;;;6292300;27;20265;-68
2023/09/28 13:03:07;;;;;;;9.77;4.22;;;;;;;;;;6273040;27;20084;-68
2023/09/28 13:06:12;;;;;;;8.80;5.25;;;;;;;;;;6278938;27;20049;-68
2023/09/28 13:09:14;;;;;;;6.78;4.07;;;;;;;;;;6302329;27;20050;-67
2023/09/28 13:12:17;;;;;;;8.80;4.00;;;;;;;;;;6237055;27;20049;-68
2023/09/28 13:15:22;;;;;;;8.23;4.50;;;;;;;;;;6252572;27;20169;-68
2023/09/28 13:18:25;;;;;;;6.50;3.70;;;;;;;;;;6290449;27;20190;-69
2023/09/28 13:21:28;;;;;;;11.98;3.95;;;;;;;;;;6293343;27;20049;-68
2023/09/28 13:24:31;;;;;;;10.98;3.53;;;;;;;;;;6286526;27;20795;-68
2023/09/28 13:27:37;;;;;;;13.10;4.60;;;;;;;;;;6265192;27;20045;-68
2023/09/28 13:30:39;;;;;;;11.90;3.92;;;;;;;;;;6271640;27;20057;-69
2023/09/28 13:33:41;;;;;;;8.63;3.85;;;;;;;;;;6248862;27;20537;-68
2023/09/28 13:36:44;;;;;;;11.00;4.28;;;;;;;;;;6315728;27;20035;-67
2023/09/28 13:39:46;;;;;;;7.57;3.75;;;;;;;;;;6297947;27;20050;-68
2023/09/28 13:42:50;;;;;;;5.25;3.90;;;;;;;;;;6258450;27;20057;-68
2023/09/28 13:45:52;;;;;;;6.35;3.88;;;;;;;;;;6294836;27;20051;-69
2023/09/28 13:48:55;;;;;;;7.57;3.50;;;;;;;;;;6265963;27;20042;-68
2023/09/28 13:51:57;;;;;;;6.93;4.05;;;;;;;;;;6287641;27;20535;-68
2023/09/28 13:54:59;;;;;;;5.65;4.35;;;;;;;;;;6273731;27;20119;-68
2023/09/28 13:58:02;;;;;;;7.10;3.38;;;;;;;;;;6268910;27;20144;-68
2023/09/28 14:01:07;;;;;;;8.20;3.53;;;;;;;;;;6265200;27;20038;-68
2023/09/28 14:04:11;;;;;;;7.55;3.92;;;;;;;;;;6281661;27;20124;-68
2023/09/28 14:07:14;;;;;;;6.47;3.70;;;;;;;;;;6276812;27;20050;-68
2023/09/28 14:10:17;;;;;;;7.03;3.80;;;;;;;;;;6282815;27;20058;-68
2023/09/28 14:13:21;;;;;;;9.05;3.83;;;;;;;;;;6277487;27;20046;-68
2023/09/28 14:16:24;;;;;;;8.35;4.13;;;;;;;;;;6265853;27;20039;-68
2023/09/28 14:19:27;;;;;;;5.95;3.15;;;;;;;;;;6298973;27;20047;-68
2023/09/28 14:22:29;;;;;;;6.60;2.60;;;;;;;;;;6249502;27;20738;-68
2023/09/28 14:25:31;;;;;;;6.88;2.50;;;;;;;;;;6278382;27;20188;-68
2023/09/28 14:28:33;;;;;;;6.10;3.90;;;;;;;;;;6269699;27;20527;-68
2023/09/28 14:31:35;;;;;;;10.13;5.15;;;;;;;;;;6275117;27;20532;-68
2023/09/28 14:34:37;;;;;;;16.35;6.03;;;;;;;;;;6265317;27;20166;-68
2023/09/28 14:37:39;;;;;;;11.85;4.20;;;;;;;;;;6268179;27;20061;-68
2023/09/28 14:40:42;;;;;;;10.70;4.10;;;;;;;;;;6287601;27;20039;-68
2023/09/28 14:43:46;;;;;;;8.70;3.20;;;;;;;;;;6334252;27;20433;-68
2023/09/28 14:46:48;;;;;;;10.73;3.03;;;;;;;;;;6281745;27;20049;-68
2023/09/28 14:49:50;;;;;;;7.15;3.25;;;;;;;;;;6332908;27;20057;-67
2023/09/28 14:52:52;;;;;;;10.45;4.38;;;;;;;;;;6278724;27;20637;-67
2023/09/28 14:55:54;;;;;;;7.47;3.80;;;;;;;;;;6281347;27;20034;-67
2023/09/28 14:58:56;;;;;;;20.25;4.63;;;;;;;;;;6302849;27;20358;-67
2023/09/28 15:01:58;;;;;;;4.78;3.85;;;;;;;;;;6316545;27;20047;-67
2023/09/28 15:05:00;;;;;;;11.35;2.65;;;;;;;;;;6303017;27;20042;-68
2023/09/28 15:08:03;;;;;;;7.43;4.78;;;;;;;;;;6265531;27;20047;-68
2023/09/28 15:11:05;;;;;;;8.95;3.83;;;;;;;;;;6246697;27;20050;-68
2023/09/28 15:14:08;;;;;;;6.13;4.13;;;;;;;;;;6221064;27;20202;-67
2023/09/28 15:17:09;;;;;;;12.60;4.13;;;;;;;;;;6287088;27;20052;-67
2023/09/28 15:20:13;;;;;;;6.47;2.80;;;;;;;;;;6336736;27;20053;-67
2023/09/28 15:23:17;;;;;;;11.85;4.47;;;;;;;;;;6244477;27;20574;-67
2023/09/28 15:26:20;;;;;;;9.88;4.22;;;;;;;;;;6320847;27;20800;-68
2023/09/28 15:29:22;;;;;;;8.93;3.40;;;;;;;;;;6359141;27;20047;-67
2023/09/28 15:32:24;;;;;;;14.73;4.75;;;;;;;;;;6293709;27;20068;-67
2023/09/28 15:35:28;;;;;;;10.63;5.68;;;;;;;;;;6252587;27;20506;-67
2023/09/28 15:38:30;;;;;;;9.20;4.68;;;;;;;;;;6328451;27;20047;-67
2023/09/28 15:41:36;;;;;;;15.63;7.85;;;;;;;;;;6264790;27;20435;-67
2023/09/28 15:44:38;;;;;;;12.52;3.17;;;;;;;;;;6261186;27;20178;-67
2023/09/28 15:47:41;;;;;;;12.55;5.55;;;;;;;;;;6237682;28;20602;-66
2023/09/28 15:50:43;;;;;;;13.05;5.38;;;;;;;;;;6239400;27;20053;-67
2023/09/28 15:53:46;;;;;;;7.75;4.47;;;;;;;;;;6251394;28;20128;-66
2023/09/28 15:56:48;;;;;;;9.90;3.65;;;;;;;;;;6266411;28;20047;-67
2023/09/28 15:59:51;;;;;;;12.32;5.72;;;;;;;;;;6276019;28;20039;-67
2023/09/28 16:02:54;;;;;;;16.33;6.07;;;;;;;;;;6234544;28;20045;-67
2023/09/28 16:05:57;;;;;;;7.20;5.22;;;;;;;;;;6274453;28;20702;-67
2023/09/28 16:09:00;;;;;;;11.07;4.70;;;;;;;;;;6284470;28;20078;-66
2023/09/28 16:12:02;;;;;;;14.40;5.07;;;;;;;;;;6258320;28;20570;-67
2023/09/28 16:15:05;;;;;;;10.27;4.80;;;;;;;;;;6292818;28;20064;-67
2023/09/28 16:18:07;;;;;;;12.13;5.80;;;;;;;;;;6249902;28;20769;-67
2023/09/28 16:21:10;;;;;;;11.48;4.32;;;;;;;;;;6251319;27;20044;-67
2023/09/28 16:24:12;;;;;;;7.97;3.92;;;;;;;;;;6257878;28;20137;-66
2023/09/28 16:27:15;;;;;;;8.75;3.92;;;;;;;;;;6303988;28;20073;-67
2023/09/28 16:30:17;;;;;;;7.38;4.22;;;;;;;;;;6257080;28;20092;-67
2023/09/28 16:33:19;;;;;;;11.18;4.80;;;;;;;;;;6234606;27;20057;-66
2023/09/28 16:36:21;;;;;;;5.45;2.10;;;;;;;;;;6259600;27;20770;-67
2023/09/28 16:39:23;;;;;;;8.00;3.50;;;;;;;;;;6302560;27;20077;-67
2023/09/28 16:42:25;;;;;;;10.65;3.63;;;;;;;;;;6265189;27;20535;-67
2023/09/28 16:45:27;;;;;;;7.75;2.28;;;;;;;;;;6261885;27;20042;-67
2023/09/28 16:48:29;;;;;;;13.07;2.97;;;;;;;;;;6262386;27;20386;-67
2023/09/28 16:51:31;;;;;;;7.85;2.03;;;;;;;;;;6271367;27;20892;-67
2023/09/28 16:54:33;;;;;;;5.10;1.77;;;;;;;;;;6286824;27;20664;-67
2023/09/28 16:57:35;;;;;;;8.85;3.75;;;;;;;;;;6264670;27;20062;-67
2023/09/28 17:00:38;;;;;;;8.13;2.25;;;;;;;;;;6288396;27;20074;-66
2023/09/28 17:03:40;;;;;;;9.52;3.55;;;;;;;;;;6309298;27;20044;-67
2023/09/28 17:06:42;;;;;;;9.13;2.78;;;;;;;;;;6320117;27;20118;-67
2023/09/28 17:09:44;;;;;;;11.20;4.00;;;;;;;;;;6269275;27;20428;-67
2023/09/28 17:12:46;;;;;;;7.30;2.60;;;;;;;;;;6327020;27;20043;-67
2023/09/28 17:15:49;;;;;;;9.55;2.47;;;;;;;;;;6255154;27;20050;-66
2023/09/28 17:18:54;;;;;;;9.20;3.67;;;;;;;;;;6247802;28;20527;-68
2023/09/28 17:21:57;;;;;;;6.18;4.93;;;;;;;;;;6263751;27;20055;-69
2023/09/28 17:24:59;;;;;;;7.75;3.10;;;;;;;;;;6234204;27;20819;-68
2023/09/28 17:28:01;;;;;;;7.65;1.52;;;;;;;;;;6280255;27;20074;-67
2023/09/28 17:31:05;;;;;;;4.43;1.50;;;;;;;;;;6251954;27;20054;-68
2023/09/28 17:34:07;;;;;;;8.38;1.50;;;;;;;;;;6252071;27;20061;-68
2023/09/28 17:37:11;;;;;;;14.52;2.47;;;;;;;;;;6272115;27;20042;-68
2023/09/28 17:40:13;;;;;;;6.82;4.38;;;;;;;;;;6279793;27;20045;-69
2023/09/28 17:43:15;;;;;;;9.68;2.22;;;;;;;;;;6272970;27;20073;-68
2023/09/28 17:46:17;;;;;;;7.63;4.72;;;;;;;;;;6248127;27;20041;-68
2023/09/28 17:49:19;;;;;;;8.50;3.67;;;;;;;;;;6262013;27;20046;-68
2023/09/28 17:52:21;;;;;;;10.30;4.40;;;;;;;;;;6252097;27;20092;-68
2023/09/28 17:55:23;;;;;;;8.77;3.80;;;;;;;;;;6239994;27;20080;-68
2023/09/28 17:58:25;;;;;;;8.73;4.30;;;;;;;;;;6245116;27;20122;-68
2023/09/28 18:01:28;;;;;;;11.02;5.50;;;;;;;;;;6265371;27;20492;-67
2023/09/28 18:04:30;;;;;;;6.07;2.75;;;;;;;;;;6285722;27;20069;-67
2023/09/28 18:07:36;;;;;;;9.07;2.05;;;;;;;;;;6256290;22;20775;-73
2023/09/28 18:10:38;;;;;;;10.18;4.10;;;;;;;;;;6200670;28;20153;-73
2023/09/28 18:13:40;;;;;;;14.85;4.20;;;;;;;;;;6225135;28;20520;-74
2023/09/28 18:16:44;;;;;;;9.95;3.28;;;;;;;;;;6212820;28;20651;-74
2023/09/28 18:19:46;;;;;;;11.77;2.40;;;;;;;;;;6256081;28;20056;-75
2023/09/28 18:22:48;;;;;;;12.60;4.90;;;;;;;;;;6236969;28;20043;-73
2023/09/28 18:25:53;;;;;;;8.45;4.85;;;;;;;;;;6238446;28;20052;-73